Temps Etape 1 et Heures de D├ępart Etape 2  
 
HeureConducteurAsaCoéquipierVoitureGroupeClassePénaTempsEcarts
09h552TODESCHINI FlorentMARSEILLEBARRAL FlorianHUYNDAI i20 N Rally 2RC2Ral2 0:45:52,80 
09h573MARGAILLAN MatthieuHAUTE PROVENCEMARGAILLAN MathildeSKODA Fabia Rally 2RC2Ral2 0:46:00,7000:07,90
09h594CLEMENÇON BenjaminALESFOURET JessicaVOLKSWAGEN Polo R5RC2Ral2 0:46:53,5001:00,70
10h015LINDHOLM EmilFinlandeHANALAINEN ReetaHUYNDAI i20 N Rally 2RC2Ral2 0:46:59,5001:06,70
10h036MUNSTER CharlesLuxembourgPASCAUD LorisHUYNDAI i20 N Rally 2RC2Ral2 0:47:25,9001:33,10
10h057RABASSE CédricJURARABASSE SabrinaSKODA Fabia R5RC2Ral2 0:47:50,5001:57,70
10h0731RIBAUD QuentinROQUE ET DURANCEDECLERCK MélissaRENAULT Clio RS Rally 3RC3Ral3 0:48:08,9002:16,10
10h098LAFAY PierreESCAAUBEUF BenjaminCITROËN C3 Rally 2RC2Ral2 0:48:14,3002:21,50
10h1118PANAGIOTIS YannickVAUCLUSIENRUEL CendrineCITROËN C3 Rally 2RC2Ral2 0:48:55,6003:02,80
10h1312BOCCOLACCI DorianGRASSESALMON ValentinCITROËN C3 Rally 2RC2Ral2 0:48:58,3003:05,50
10h1521FALCO Jean-MarcGRASSENANNI XavierSKODA Fabia R5RC2Ral2 0:49:04,3003:11,50
10h1710FERAUD CyrilleGRASSEGIRAUD GrégorySKODA Fabia Rally 2RC2Ral2 0:49:05,4003:12,60
10h1920VENTURINI Henri-MarcRESTONICADE TURCKHEIM GillesSKODA Fabia R5RC2Ral2 0:49:06,6003:13,80
10h2115VILA Jean-PaulRESTONICACORVI DominiqueSKODA Fabia R5RC2Ral2 0:49:47,4003:54,60
10h2316MAUFFREY EricVOSGIENREBUT JulienSKODA Fabia R5RC2Ral2 0:49:48,7003:55,90
10h2533RAGUES PierrePAYS NORMANDPESENTI JulienRENAULT Clio RS Rally 3RC3Ral3 0:50:12,5004:19,70
10h2627PREVALET MickaëlSEQUANIEPAGNIER MatthieuSKODA Fabia R5RC2Ral2 0:50:18,1004:25,30
10h2724DESANGLES YanisROUTE D'ARGENTLIRAUD FlorentSKODA Fabia R5RC2Ral2 0:50:35,2004:42,40
10h2832JACQUOT JérômeLANGRESGRANDEMANGE MarielleRENAULT Clio RS Rally 3RC3Ral3 0:50:53,005:00,20
10h2928CAMPAGNOLI GabrieleItalieARENA NicolaHUYNDAI i20 N Rally 2RC2Ral220s0:51:08,6005:15,80
10h3034BRUYNEEL DominiqueBelgiqueWERNER FranckFORD Fiesta Rally 3RC3Ral3 0:51:24,5005:31,70
10h31148CASIER BerndBelgiqueVYNCKE PieterFORD Fiesta R5RC2Ral23m0s0:51:36,005:43,20
10h3226SALIN DanielMEDITERRANÉESALIN BrigitteSKODA Fabia R5RC2Ral2 0:51:38,005:45,20
10h3340MOREL Jean-LucMEDITERRANÉETOTI MireilleSUBARU Impreza WRXRNatN4 0:52:03,3006:10,50
10h3442LOBRY MickaëlQUERCYPARADE GaëtanMITSUBISHI Lancer EvoXRNatR4 0:52:10,7006:17,90
10h3556PELLEREY TomVAISONNAISEFAUCHER HervéRENAULT Clio RS Rally 5RC5Ral5 0:52:20,4006:27,60
10h3619MOUREY LudovicLANGRESCAPRA FranckCITROËN C3 Rally 2RC2Ral21m0s0:52:33,5006:40,70
10h37147SOBRY BartBelgiquePATTYN DiderikFORD Fiesta Rally 3RC3Ral3 0:52:35,6006:42,80
10h3879LOPEZ YannickROUTE D'ARGENTSAFFIOTI LionelSUBARU Impreza WRXRNatN4 0:52:38,1006:45,30
10h3944RUMEAU SarahALESAMBLARD JuliePEUGEOT 208 Rally 4RC4Ral4 0:52:40,2006:47,40
10h4039BEKAERT GuySAINT-RAPHAËLREICHENECKER JoshSUBARU Impreza StiRNatN4 0:53:10,8007:18,0
10h4155VIGION Jean-SébastienTERRE DE ST JUNIENBORDERIE AmandineRENAULT Clio RS Rally 5RC5Ral5 0:53:29,9007:37,10
10h4229DUJARDYN KurtBelgiqueCASTELEIN JacquesSKODA Fabia R5RC2Ral2 0:53:50,8007:58,0
10h4314RIEU JonathanMEDITERRANÉEESCARTEFIGUE ThomasSKODA Fabia R5RC2Ral2 1:00:20,1014:27,30
10h4422MARTI ChristianROUTE D'ARGENTLAVIALE Jean-MarcSKODA Fabia R5RC2Ral2 1:36:08,5050:15,70
10h4563FERRIERE DavidTERRE DE CORSEDONNAT MathieuRENAULT Clio RS Rally 5RC5Ral5 0:54:04,008:11,20
10h4671ROVINA AnthonyCORSICAROVINA LauraRENAULT Clio RS Rally 5RC5Ral5 0:54:06,9008:14,10
10h4735ROCARD ChristopheLANGRESCHARDON FlorianRENAULT Clio RS Rally 3RC3Ral3 0:54:24,6008:31,80
10h4854TIRAT ChristopheMEDITERRANÉESALIGNON AudreyRENAULT Clio RS Rally 4RC4Ral4 0:54:41,3008:48,50
10h4986ALLEMAND LoïcMEDITERRANÉEGUIGUE ManonCITROËN DS3 R3RC4R3 0:54:44,7008:51,90
10h50150BERTHELIER RémiGRASSEDALLOLMO TeddyNISSAN Sunny Gti RRNatN4 0:54:47,8008:55,0
10h5149DUCASTEL LoïcVAUCLUSIENJULIEN ThéoPEUGEOT 208 Rally 4RC4Ral4 0:55:03,9009:11,10
10h5266DE LUCA LudovicVAISONNAISEBOYER JoséRENAULT Clio RS Rally 5RC5Ral5 0:55:13,009:20,20
10h5357MOREL LucasMEDITERRANÉEREY JeanneRENAULT Clio RS Rally 5RC5Ral5 0:55:21,6009:28,80
10h5436DESMET RobbertBelgiqueTANGHE ClaudieFORD Fiesta Rally 3RC3Ral31m40s0:55:41,009:48,20
10h5576MAS PaulROUTE D'ARGENTVERNHES YolèneMITSUBISHI Lancer Evo9RNatA8 0:55:53,5010:00,70
10h5659TAMISIER SylvainMEDITERRANÉETAMISIER MathieuRENAULT Clio RS Rally 4RC4Ral42m10s0:56:02,010:09,20
10h5774LATOUR StéphaneMEDITERRANÉEVALLOS ChristopheSUBARU Impreza GTRNatA8 0:56:11,8010:19,0
10h5845VERONESE JosephRESTONICAVERONESE Marie-PaulePEUGEOT 208 Rally 4RC4Ral4 0:56:13,9010:21,10
10h59129VITAL Jean-PierreHAUTE VALLÉE DE LA LOIREROISSAC PatriceCITROËN Saxo VTSRC4F213 0:56:31,9010:39,10
11h00128GEGOUT ClémentVOSGIENLEPRETRE JessikaCITROËN C2 VTSRC4F213 0:56:34,4010:41,60
11h0181DOVERI FranckSAINT-RAPHAËLGASTINEL Jean-FrançoisSUBARU Impreza StiRNatN410s0:57:07,6011:14,80
11h0295HERBIN FlorianROUTE D'ARGENTHERBIN ClémentPEUGEOT 206 RcRNatF214 0:57:11,6011:18,80
11h0365FRANCISCI YannickBASTIAISEGAFFAYOLI CarlaRENAULT Clio RS Rally 5RC5Ral5 0:57:16,2011:23,40
11h0488CHOQUER MickaëlAIX EN PROVENCESAUSSAC StéphaniePEUGEOT 207 RcRC4R3 0:57:29,011:36,20
11h0585MOULIN FrançoisLOZERETURIERE FrédéricCITROËN DS3 R3RC4R3 1:44:36,3058:43,50
11h0687BROSSY AlexandreROUTE D'ARGENTSCUDIER JérômeRENAULT Clio R3RC4R3 1:41:28,4055:35,60
11h07116BRAJON LudovicLOZERESALANSON ThierryRENAULT Clio RSRC4A7 0:57:44,011:51,20
11h0867TOUSSAINT BenoîtREMPARTS ANGOULEMECASAYS MaelleRENAULT Clio RS Rally 5RC5Ral5 0:57:56,5012:03,70
11h0968VANDERSTEEN GuillaumeMEDITERRANÉEVANDERSTEEN MélanieRENAULT Clio RS Rally 5RC5Ral5 0:58:06,2012:13,40
11h1092ROCHER ArnaudLOZEREPAULHAN SabineRENAULT Clio RSRNatF214 0:58:41,2012:48,40
11h1164MARCHESINI ClémentMEDITERRANÉEBAUMET EddieRENAULT Clio RS Rally 5RC5Ral5 0:58:53,4013:00,60
11h12151BELTRAMI CyrilMONT-BLANCBARONNET SébastienPEUGEOT 206 RcRC4A7 0:59:06,9013:14,10
11h1353ROMERO MatthiasVAUCLUSIENROMERO PascalPEUGEOT 208 Rally 4RC4Ral4 0:59:20,1013:27,30
11h1447BAREL FabienNICEGAREL RomainPEUGEOT 208 Rally 4RC4Ral4 1:03:35,2017:42,40
11h1551RAMOS NicolasVAUCLUSIENFERRE SylvainPEUGEOT 208 Rally 4RC4Ral4 1:42:05,3056:12,50
11h16145GREVOT FlorianROUTE D'ARGENTROCHE IvanPEUGEOT 106 XSIRC5F212 0:59:36,6013:43,80
11h1773LOPEZ EtienneISTRESPERRENOUD DylanSUBARU Impreza WRXRNatA8 0:59:56,2014:03,40
11h1869VANDERSTEEN ThomasMEDITERRANÉEVANDERSTEEN OlivierRENAULT Clio RS Rally 5RC5Ral5 1:00:02,8014:10,0
11h1996DELPUECH ThomasCIGALOISEBAZIN AugustinPEUGEOT 206 RcRNatF214 1:00:12,2014:19,40
11h20115OLMI GaëtanLOZEREIBANEZ FlorianPEUGEOT 306 S16RC4A7 1:00:43,4014:50,60
11h21122DECHANET AlexandreLOZERERUFFONI MickaelPEUGEOT 206 RcRC4A7 1:00:54,9015:02,10
11h22114GORGEOT YannRHÔNEGIDEL MorineCITROËN C2 R2 MaxRC4R2 1:01:00,2015:07,40
11h23124SAGNE LoïcLOZEREFAUCOUIT SimonCITROËN ZX 16VRC4A7 1:01:27,6015:34,80
11h24130RONDOT ChristopheESCARONDOT CharlyPEUGEOT 205 GTIRC4F213 1:01:32,8015:40,0
11h25119PANSARD OlivierLOZEREPANSARD CéliaPEUGEOT 205 GTIRC4A7 1:01:39,4015:46,60
11h2637AUTAJON GIRARD RobinMONTELIMARBARD JérômeRENAULT Clio RS Rally 3RC3Ral3 1:01:54,7016:01,90
11h27110BALDACCIONI LaurentMEDITERRANÉEBEGOUAUSSEL MarcCITROËN Saxo T4RNatFRC10s1:02:38,3016:45,50
11h2880NOUZIERES JérômeCASTINECOURTINE PhilippeSUBARU Impreza WRXRNatN4 1:33:42,3047:49,50
11h2983REGHESSA AnthonyGRASSEPEYNE RomainMITSUBISHI Lancer Evo9RNatN4 1:38:15,5052:22,70
11h3084SAYE BrunoHAUTE PROVENCESAYE RomaneSUBARU ImprezaRNatN4 1:42:28,2056:35,40
11h31144VEYRARD DidierFOREZTARDY VincentSUBARU Impreza StiRNatN4 1:42:43,1056:50,30
11h3282GUIRAUD PatrickGARD-CEVENNESBAUDELOT YannickSUBARU ImprezaRNatN420s1:02:49,4016:56,60
11h33136GENDRAU JulienLANGRESDARRAS CoraliePEUGEOT 106 S16RC5F212 2:02:36,9016:44,10
11h34106CANUT SylvainGARD-CEVENNESSALELLES SarahPEUGEOT 206 XSRC4A6K 1:03:13,2017:20,40
11h35105SAUNIER AlexandreRHÔNECOURVOISIER ClémentPEUGEOT 206 XSRC4A6K 1:03:21,7017:28,90
11h36141QUARROZ DamienLANGRESMICOLLIER ClairePEUGEOT 106 S16RC5N2 1:03:33,017:40,20
11h37140MOUGIN JulesLANGRESCHARIOT RenéSUZUKI Swift SportRC5N2 1:03:40,3017:47,50
11h38135BARTOLI AnthonyCORSICARICARD JonathanFORD Fiesta R2JRC5R2J 1:03:44,6017:51,80
11h39142VAILLE MickaelLOZERECOUZON SandrinePEUGEOT 205 GTIRC5N2 1:03:45,8017:53,0
11h40127GROSSMAN KévinONDAINEBOURGIN CoralieFORD FiestaRC4N3 1:03:54,4018:01,60
11h41137MASSON KévinLANGRESLEHMANN OphéliePEUGEOT 106 S16RC5N2 1:05:42,3019:49,50
11h42120LATOUR Jean-LouisMEDITERRANÉELATOUR LisonPEUGEOT 205 GTIRC4A7 1:06:09,9020:17,10
11h43118ORSINI AnthonyMONTELIMARORSINI VivienPEUGEOT 206 RcRC4A7 1:48:14,1002:21,30
11h44121LAGIER FabriceALPESBIAGETTI LoanPEUGEOT 306 S16RC4A7 1:47:59,6002:06,80
11h45123PORT ChristianMEDITERRANÉEBRAYARD GilbertTOYOTA GT 86RC4A7 1:49:36,3003:43,50
11h46125TATIN HugoMEDITERRANÉEDEDIEU BaptistinPEUGEOT 306 S16RC4A7 1:48:20,2002:27,40
11h4761MOCCA ChristopheMEDITERRANÉEGALON VincentRENAULT Clio RS Rally 5RC5Ral5 1:07:00,2021:07,40
11h4878GLEY Jean-PierreLOZEREOLIVIER SergeSUBARU Impreza GTRNatA8 1:07:07,1021:14,30
11h4997GREFFIER LucasGARD-CEVENNESGRAND Jean-ChristophePEUGEOT 206 RcRNatF214 1:07:23,1021:30,30
11h5090BERNARDI JacquesMEDITERRANÉEJOYEUX LéaPEUGEOT 306 S16RNatF214 1:47:09,4001:16,60
11h5193CHARRIER CharlesVELAY-AUVERGNESITARZ-BOURGUIGNON SylvianeRENAULT Clio RSRNatF214 1:07:04,9021:12,10
11h5294GINIER CédricLOZEREPALMER CamillePEUGEOT 206 RccRNatF214 1:46:52,5000:59,70
11h53100PANSARD FrédéricLOZEREMARITORENA PENA AlizéePEUGEOT 205 GTIRNatF214 1:47:25,5001:32,70
11h54101PASSEMARD SébastienLOZEREPASSEMARD VirginiePEUGEOT 205 GTIRNatF214 1:10:50,8024:58,0
11h55103RAOUX PatriceLOZERERAOUX JustinPEUGEOT 206 RcRNatF214 1:31:47,8045:55,0
11h5660TAMISIER InesMEDITERRANÉETAMISIER LaurentRENAULT Clio RS Rally 5RC5Ral5 1:09:44,5023:51,70
11h57109BON PatriceMEDITERRANÉEBLATTES ThierryCITROËN Saxo T4RNatFRC 1:47:27,8001:35,0
11h58138DIPAOLO AlainDE LA LOIREPRIVAT ThibaultPEUGEOT 106 S16RC5N2 1:09:51,1023:58,30
11h5962DUVERGER AntoineMEDITERRANÉEDUVERGER SergeRENAULT Clio RS Rally 5RC5Ral5 1:42:50,3056:57,50
12h0070MORARD PhilippeVAUCLUSIENGROULIER VincentRENAULT Clio RS Rally 5RC5Ral5 1:42:30,2056:37,40
12h01111ALLIO StéphaneMARSEILLEGELIS SimonCITROËN Saxo T4RNatFRC2m0s1:11:05,1025:12,30
12h02133EUSTAQUIO ThomasCIGALOISEEUSTAQUIO PhilippePEUGEOT 106 S16RC4A6 1:18:34,8032:42,0
12h03143AMOROS CédricSAINT MARCELLINOISEGRENIER ConstancePEUGEOT 206 XSRC5N2S 1:43:10,2057:17,40